createdAt,value
2022-10-11T00:00:32.927Z,1.08
2022-10-11T00:02:59.373Z,1.00
2022-10-11T00:05:25.843Z,1.65
2022-10-11T00:07:52.316Z,1.08
2022-10-11T00:10:19.132Z,1.02
2022-10-11T00:12:45.612Z,0.70
2022-10-11T00:15:13.490Z,1.15
2022-10-11T00:17:39.887Z,2.25
2022-10-11T00:20:06.793Z,0.73
2022-10-11T00:22:34.793Z,1.00
2022-10-11T00:25:01.217Z,1.17
2022-10-11T00:27:27.636Z,0.93
2022-10-11T00:29:54.132Z,1.25
2022-10-11T00:32:20.503Z,0.90
2022-10-11T00:34:47.012Z,0.95
2022-10-11T00:37:13.401Z,1.20
2022-10-11T00:39:39.832Z,0.73
2022-10-11T00:42:13.809Z,0.90
2022-10-11T00:44:40.923Z,1.20
2022-10-11T00:47:10.131Z,1.23
2022-10-11T00:49:41.047Z,0.88
2022-10-11T00:52:22.592Z,1.30
2022-10-11T00:54:49.003Z,1.02
2022-10-11T00:57:18.764Z,1.15
2022-10-11T00:59:47.904Z,1.17
2022-10-11T01:02:14.320Z,1.15
2022-10-11T01:04:40.757Z,1.00
2022-10-11T01:07:07.161Z,1.15
2022-10-11T01:09:33.527Z,0.82
2022-10-11T01:12:01.445Z,1.50
2022-10-11T01:14:33.753Z,1.33
2022-10-11T01:17:37.256Z,1.20
2022-10-11T01:20:22.133Z,1.08
2022-10-11T01:23:09.449Z,1.05
2022-10-11T01:26:09.937Z,1.23
2022-10-11T01:28:49.360Z,1.40
2022-10-11T01:31:34.321Z,1.13
2022-10-11T01:34:06.471Z,1.13
2022-10-11T01:36:41.659Z,0.95
2022-10-11T01:39:28.700Z,1.10
2022-10-11T01:41:56.463Z,1.40
2022-10-11T01:44:23.980Z,1.50
2022-10-11T01:46:51.768Z,1.02
2022-10-11T01:49:18.221Z,1.10
2022-10-11T01:51:49.338Z,1.77
2022-10-11T01:54:22.547Z,1.02
2022-10-11T01:57:07.533Z,1.70
2022-10-11T01:59:39.677Z,1.40
2022-10-11T02:02:30.908Z,0.98
2022-10-11T02:05:11.427Z,0.80
2022-10-11T02:07:51.848Z,1.23
2022-10-11T02:10:26.797Z,1.55
2022-10-11T02:13:14.454Z,0.98
2022-10-11T02:15:41.012Z,1.50
2022-10-11T02:18:10.119Z,1.30
2022-10-11T02:20:37.203Z,1.23
2022-10-11T02:23:08.035Z,1.50
2022-10-11T02:25:35.075Z,0.90
2022-10-11T02:28:02.344Z,1.33
2022-10-11T02:30:29.694Z,1.08
2022-10-11T02:32:56.103Z,0.90
2022-10-11T02:35:22.561Z,1.10
2022-10-11T02:37:54.265Z,1.27
2022-10-11T02:40:27.146Z,1.08
2022-10-11T02:42:59.239Z,1.00
2022-10-11T02:45:33.093Z,1.52
2022-10-11T02:47:59.511Z,1.73
2022-10-11T02:50:26.325Z,1.48
2022-10-11T02:52:52.725Z,1.77
2022-10-11T02:55:19.166Z,1.38
2022-10-11T02:57:45.570Z,1.25
2022-10-11T03:00:12.682Z,1.55
2022-10-11T03:02:39.072Z,1.15
2022-10-11T03:05:05.501Z,1.38
2022-10-11T03:07:31.884Z,1.00
2022-10-11T03:09:58.246Z,1.05
2022-10-11T03:12:24.644Z,0.90
2022-10-11T03:14:51.023Z,1.17
2022-10-11T03:17:35.615Z,0.90
2022-10-11T03:20:03.853Z,1.75
2022-10-11T03:22:30.645Z,0.85
2022-10-11T03:25:01.093Z,1.38
2022-10-11T03:27:29.892Z,1.13
2022-10-11T03:29:56.285Z,1.15
2022-10-11T03:32:22.669Z,0.95
2022-10-11T03:34:49.068Z,1.30
2022-10-11T03:37:15.471Z,1.25
2022-10-11T03:39:41.983Z,0.90
2022-10-11T03:42:08.398Z,0.98
2022-10-11T03:44:34.853Z,1.05
2022-10-11T03:47:01.253Z,1.42
2022-10-11T03:49:27.645Z,1.02
2022-10-11T03:51:54.015Z,1.35
2022-10-11T03:54:20.396Z,1.08
2022-10-11T03:56:46.787Z,1.73
2022-10-11T03:59:13.225Z,0.93
2022-10-11T04:01:39.632Z,1.27
2022-10-11T04:04:06.272Z,1.50
2022-10-11T04:06:32.840Z,1.08
2022-10-11T04:08:59.279Z,1.25
2022-10-11T04:11:25.697Z,1.20
2022-10-11T04:13:52.085Z,1.40
2022-10-11T04:16:18.458Z,1.20
2022-10-11T04:18:44.839Z,1.33
2022-10-11T04:21:11.228Z,0.80
2022-10-11T04:23:37.601Z,1.20
2022-10-11T04:26:05.664Z,0.90
2022-10-11T04:28:32.790Z,0.90
2022-10-11T04:30:59.280Z,0.98
2022-10-11T04:33:25.648Z,1.27
2022-10-11T04:35:55.556Z,0.90
2022-10-11T04:38:22.603Z,1.30
2022-10-11T04:40:49.029Z,1.27
2022-10-11T04:43:15.493Z,1.40
2022-10-11T04:45:42.354Z,1.45
2022-10-11T04:48:08.736Z,1.23
2022-10-11T04:50:35.222Z,0.77
2022-10-11T04:53:01.594Z,1.02
2022-10-11T04:55:28.105Z,1.42
2022-10-11T04:57:54.525Z,1.48
2022-10-11T05:00:20.950Z,1.08
2022-10-11T05:02:47.315Z,1.38
2022-10-11T05:05:13.718Z,1.30
2022-10-11T05:07:40.100Z,1.33
2022-10-11T05:10:07.217Z,1.65
2022-10-11T05:12:33.608Z,1.30
2022-10-11T05:15:00.051Z,1.25
2022-10-11T05:17:26.446Z,1.02
2022-10-11T05:19:52.817Z,1.35
2022-10-11T05:22:19.222Z,1.45
2022-10-11T05:24:45.576Z,1.58
2022-10-11T05:27:11.960Z,1.35
2022-10-11T05:29:38.373Z,1.63
2022-10-11T05:32:04.928Z,0.95
2022-10-11T05:34:31.325Z,1.23
2022-10-11T05:36:57.710Z,1.05
2022-10-11T05:39:24.188Z,1.63
2022-10-11T05:41:50.594Z,1.58
2022-10-11T05:44:16.956Z,1.45
2022-10-11T05:46:43.417Z,1.27
2022-10-11T05:49:09.784Z,1.33
2022-10-11T05:51:36.185Z,1.00
2022-10-11T05:54:02.565Z,1.60
2022-10-11T05:56:28.972Z,1.17
2022-10-11T05:58:59.919Z,1.40
2022-10-11T06:01:28.565Z,1.40
2022-10-11T06:03:55.102Z,1.10
2022-10-11T06:06:21.647Z,1.25
2022-10-11T06:08:48.292Z,1.52
2022-10-11T06:11:16.595Z,1.70
2022-10-11T06:13:43.052Z,1.75
2022-10-11T06:16:09.663Z,1.58
2022-10-11T06:18:36.381Z,1.33
2022-10-11T06:21:03.070Z,1.00
2022-10-11T06:23:29.542Z,1.40
2022-10-11T06:25:59.517Z,1.58
2022-10-11T06:28:27.069Z,1.13
2022-10-11T06:30:53.596Z,1.30
2022-10-11T06:33:20.205Z,1.25
2022-10-11T06:35:46.742Z,1.60
2022-10-11T06:38:13.288Z,1.50
2022-10-11T06:40:39.751Z,1.27
2022-10-11T06:43:06.153Z,1.10
2022-10-11T06:45:32.530Z,2.17
2022-10-11T06:47:58.987Z,1.50
2022-10-11T06:50:47.205Z,1.40
2022-10-11T06:53:12.035Z,1.23
2022-10-11T06:55:38.553Z,1.40
2022-10-11T06:58:05.111Z,1.58
2022-10-11T07:00:31.577Z,1.50
2022-10-11T07:02:58.118Z,1.85
2022-10-11T07:05:24.642Z,1.50
2022-10-11T07:07:51.144Z,1.40
2022-10-11T07:10:17.719Z,1.58
2022-10-11T07:12:44.424Z,1.40
2022-10-11T07:15:10.993Z,1.85
2022-10-11T07:17:37.400Z,1.83
2022-10-11T07:20:05.052Z,1.33
2022-10-11T07:22:31.417Z,1.60
2022-10-11T07:24:57.829Z,1.58
2022-10-11T07:27:24.237Z,1.40
2022-10-11T07:29:50.629Z,1.70
2022-10-11T07:32:17.011Z,0.93
2022-10-11T07:34:43.598Z,1.63
2022-10-11T07:37:10.003Z,1.42
2022-10-11T07:39:36.444Z,1.77
2022-10-11T07:42:02.973Z,1.10
2022-10-11T07:44:29.368Z,1.50
2022-10-11T07:46:56.144Z,1.48
2022-10-11T07:49:22.541Z,1.83
2022-10-11T07:51:48.938Z,1.10
2022-10-11T07:54:15.307Z,1.30
2022-10-11T07:56:41.710Z,1.83
2022-10-11T07:59:08.079Z,1.15
2022-10-11T08:01:34.556Z,1.50
2022-10-11T08:04:00.969Z,2.10
2022-10-11T08:06:28.852Z,1.25
2022-10-11T08:08:55.285Z,1.08
2022-10-11T08:11:22.595Z,1.42
2022-10-11T08:13:49.069Z,1.90
2022-10-11T08:16:15.499Z,1.13
2022-10-11T08:18:41.884Z,2.38
2022-10-11T08:21:09.312Z,1.70
2022-10-11T08:23:35.742Z,1.20
2022-10-11T08:26:02.536Z,1.42
2022-10-11T08:28:29.220Z,1.75
2022-10-11T08:30:55.627Z,1.52
2022-10-11T08:33:22.873Z,1.20
2022-10-11T08:35:49.524Z,1.35
2022-10-11T08:38:15.944Z,1.33
2022-10-11T08:40:53.188Z,1.10
2022-10-11T08:43:31.765Z,1.45
2022-10-11T08:45:59.805Z,1.48
2022-10-11T08:48:34.400Z,1.55
2022-10-11T08:51:00.772Z,1.10
2022-10-11T08:53:35.673Z,1.35
2022-10-11T08:56:02.077Z,1.20
2022-10-11T08:58:56.331Z,0.90
2022-10-11T09:01:24.840Z,1.33
2022-10-11T09:03:51.326Z,1.27
2022-10-11T09:06:23.598Z,1.05
2022-10-11T09:09:11.148Z,1.08
2022-10-11T09:12:19.576Z,1.13
2022-10-11T09:15:02.267Z,1.20
2022-10-11T09:17:46.828Z,1.10
2022-10-11T09:20:34.874Z,1.80
2022-10-11T09:23:05.116Z,1.00
2022-10-11T09:25:33.179Z,0.85
2022-10-11T09:28:15.078Z,0.85
2022-10-11T09:30:47.095Z,1.45
2022-10-11T09:33:18.155Z,1.27
2022-10-11T09:35:47.002Z,1.45
2022-10-11T09:38:43.058Z,1.38
2022-10-11T09:41:11.541Z,1.00
2022-10-11T09:43:37.937Z,1.30
2022-10-11T09:46:23.096Z,1.15
2022-10-11T09:48:49.504Z,1.00
2022-10-11T09:51:18.409Z,1.05
2022-10-11T09:53:53.545Z,1.10
2022-10-11T09:56:19.907Z,1.40
2022-10-11T09:58:46.316Z,0.98
2022-10-11T10:01:22.139Z,0.90
2022-10-11T10:03:48.565Z,0.98
2022-10-11T10:06:23.674Z,1.13
2022-10-11T10:08:50.089Z,1.50
2022-10-11T10:11:16.792Z,1.20
2022-10-11T10:14:01.314Z,0.70
2022-10-11T10:16:31.707Z,1.35
2022-10-11T10:19:02.064Z,0.88
2022-10-11T10:21:33.014Z,1.05
2022-10-11T10:24:00.292Z,1.52
2022-10-11T10:26:26.767Z,1.00
2022-10-11T10:28:58.562Z,1.30
2022-10-11T10:31:40.302Z,0.85
2022-10-11T10:36:47.228Z,0.77
2022-10-11T10:39:22.675Z,1.42
2022-10-11T10:41:49.102Z,1.08
2022-10-11T10:44:15.487Z,1.05
2022-10-11T10:46:47.894Z,1.02
2022-10-11T10:49:52.514Z,0.82
2022-10-11T10:52:45.938Z,0.95
2022-10-11T10:55:33.382Z,1.20
2022-10-11T11:01:02.532Z,1.55
2022-10-11T11:03:47.616Z,1.30
2022-10-11T11:06:28.438Z,0.90
2022-10-11T11:09:16.235Z,0.63
2022-10-11T11:12:01.049Z,0.80
2022-10-11T11:14:47.035Z,1.00
2022-10-11T11:17:44.164Z,1.00
2022-10-11T11:20:28.841Z,0.93
2022-10-11T11:23:15.107Z,1.23
2022-10-11T11:25:46.676Z,0.90
2022-10-11T11:28:31.249Z,1.13
2022-10-11T11:31:19.401Z,1.38
2022-10-11T11:34:16.467Z,1.20
2022-10-11T11:36:45.853Z,1.42
2022-10-11T11:39:22.295Z,0.82
2022-10-11T11:41:53.430Z,2.03
2022-10-11T11:44:26.465Z,1.10
2022-10-11T11:47:02.652Z,1.30
2022-10-11T11:49:37.831Z,1.20
2022-10-11T11:52:05.660Z,0.93
2022-10-11T11:54:39.477Z,1.00
2022-10-11T11:57:13.868Z,1.10
2022-10-11T12:00:00.609Z,0.82
2022-10-11T12:02:55.451Z,1.00
2022-10-11T12:05:27.608Z,0.90
2022-10-11T12:08:07.469Z,1.50
2022-10-11T12:10:59.831Z,1.10
2022-10-11T12:13:38.848Z,1.55
2022-10-11T12:16:14.898Z,1.80
2022-10-11T12:18:53.752Z,0.90
2022-10-11T12:21:38.666Z,1.10
2022-10-11T12:24:12.716Z,1.13
2022-10-11T12:26:42.829Z,0.90
2022-10-11T12:29:47.016Z,1.20
2022-10-11T12:32:36.628Z,0.82
2022-10-11T12:35:31.023Z,1.60
2022-10-11T12:38:04.824Z,0.80
2022-10-11T12:40:40.679Z,1.13
2022-10-11T12:43:16.598Z,1.60
2022-10-11T12:48:40.666Z,0.80
2022-10-11T12:51:17.546Z,1.52
2022-10-11T12:54:25.607Z,1.13
2022-10-11T12:57:11.035Z,1.45
2022-10-11T13:02:34.869Z,1.13
2022-10-11T13:05:17.063Z,1.27
2022-10-11T13:07:43.495Z,3.25
2022-10-11T13:10:14.373Z,1.75
2022-10-11T13:12:41.227Z,1.15
2022-10-11T13:15:15.672Z,1.50
2022-10-11T13:17:42.101Z,1.17
2022-10-11T13:20:19.232Z,0.80
2022-10-11T13:22:53.039Z,0.70
2022-10-11T13:25:25.125Z,0.90
2022-10-11T13:27:52.624Z,0.50
2022-10-11T13:30:26.318Z,0.90
2022-10-11T13:32:55.007Z,1.10
2022-10-11T13:35:34.082Z,0.70
2022-10-11T13:38:03.189Z,0.50
2022-10-11T13:40:29.841Z,0.55
2022-10-11T13:42:56.521Z,1.35
2022-10-11T13:45:27.484Z,0.70
2022-10-11T13:47:55.298Z,1.00
2022-10-11T13:50:25.460Z,0.90
2022-10-11T13:53:22.701Z,0.77
2022-10-11T13:55:59.172Z,0.82
2022-10-11T13:58:37.103Z,0.70
2022-10-11T14:01:07.335Z,0.50
2022-10-11T14:03:43.442Z,1.50
2022-10-11T14:06:09.880Z,1.13
2022-10-11T14:08:46.169Z,0.93
2022-10-11T14:11:12.865Z,0.60
2022-10-11T14:13:48.532Z,1.25
2022-10-11T14:16:20.549Z,0.68
2022-10-11T14:18:59.080Z,1.13
2022-10-11T14:21:43.615Z,0.73
2022-10-11T14:24:10.007Z,0.73
2022-10-11T14:26:41.176Z,0.77
2022-10-11T14:29:30.765Z,1.27
2022-10-11T14:32:01.642Z,1.00
2022-10-11T14:34:28.406Z,0.70
2022-10-11T14:36:54.861Z,0.70
2022-10-11T14:39:23.636Z,0.45
2022-10-11T14:41:50.514Z,0.80
2022-10-11T14:44:16.958Z,0.75
2022-10-11T14:46:43.726Z,1.05
2022-10-11T14:49:21.137Z,0.60
2022-10-11T14:51:48.715Z,1.20
2022-10-11T14:54:15.367Z,1.13
2022-10-11T14:56:41.783Z,1.50
2022-10-11T14:59:09.878Z,1.00
2022-10-11T15:01:36.384Z,1.48
2022-10-11T15:04:02.824Z,1.52
2022-10-11T15:06:30.544Z,1.08
2022-10-11T15:08:56.924Z,1.05
2022-10-11T15:11:23.445Z,1.10
2022-10-11T15:13:50.196Z,1.35
2022-10-11T15:16:18.004Z,1.17
2022-10-11T15:18:44.518Z,1.02
2022-10-11T15:21:13.941Z,0.85
2022-10-11T15:23:40.365Z,1.00
2022-10-11T15:26:07.028Z,1.00
2022-10-11T15:28:33.718Z,0.73
2022-10-11T15:31:00.272Z,1.15
2022-10-11T15:33:26.682Z,0.85
2022-10-11T15:35:53.058Z,0.90
2022-10-11T15:38:21.214Z,1.10
2022-10-11T15:40:47.894Z,1.20
2022-10-11T15:43:14.934Z,1.40
2022-10-11T15:45:41.412Z,1.42
2022-10-11T15:48:08.006Z,1.10
2022-10-11T15:50:35.576Z,0.77
2022-10-11T15:53:05.772Z,1.85
2022-10-11T15:55:33.199Z,1.10
2022-10-11T15:57:59.756Z,1.17
2022-10-11T16:00:26.141Z,1.00
2022-10-11T16:02:52.794Z,1.20
2022-10-11T16:05:22.991Z,0.57
2022-10-11T16:07:49.426Z,1.02
2022-10-11T16:10:15.919Z,0.80
2022-10-11T16:12:42.291Z,1.15
2022-10-11T16:15:09.026Z,1.20
2022-10-11T16:17:35.655Z,0.95
2022-10-11T16:20:02.173Z,1.23
2022-10-11T16:22:29.284Z,1.15
2022-10-11T16:24:55.673Z,1.50
2022-10-11T16:27:22.038Z,1.40
2022-10-11T16:29:48.496Z,1.02
2022-10-11T16:32:15.942Z,1.30
2022-10-11T16:34:42.417Z,1.15
2022-10-11T16:37:08.802Z,3.58
2022-10-11T16:39:35.195Z,3.20
2022-10-11T16:42:01.576Z,3.80
2022-10-11T16:44:27.975Z,4.05
2022-10-11T16:46:54.832Z,2.53
2022-10-11T16:49:23.038Z,1.80
2022-10-11T16:51:53.926Z,1.65
2022-10-11T16:54:20.910Z,1.60
2022-10-11T16:56:50.512Z,1.30
2022-10-11T16:59:17.053Z,1.13
2022-10-11T17:01:43.947Z,1.50
2022-10-11T17:04:12.292Z,1.10
2022-10-11T17:06:39.093Z,1.33
2022-10-11T17:09:05.784Z,1.38
2022-10-11T17:11:32.402Z,1.20
2022-10-11T17:13:59.724Z,0.93
2022-10-11T17:16:26.229Z,1.10
2022-10-11T17:18:52.608Z,1.52
2022-10-11T17:21:19.828Z,1.15
2022-10-11T17:23:46.195Z,1.20
2022-10-11T17:26:17.280Z,1.05
2022-10-11T17:28:46.282Z,1.10
2022-10-11T17:31:12.832Z,1.13
2022-10-11T17:33:39.355Z,0.80
2022-10-11T17:36:17.655Z,1.55
2022-10-11T17:38:44.064Z,1.10
2022-10-11T17:41:10.659Z,1.20
2022-10-11T17:43:37.051Z,1.30
2022-10-11T17:46:05.028Z,1.35
2022-10-11T17:48:32.717Z,1.45
2022-10-11T17:50:59.136Z,1.38
2022-10-11T17:53:25.559Z,1.60
2022-10-11T17:55:53.152Z,1.90
2022-10-11T17:58:19.638Z,1.13
2022-10-11T18:00:46.078Z,1.33
2022-10-11T18:03:12.595Z,1.95
2022-10-11T18:05:39.961Z,0.95
2022-10-11T18:08:06.637Z,1.35
2022-10-11T18:10:34.200Z,1.63
2022-10-11T18:13:04.450Z,1.48
2022-10-11T18:15:32.808Z,1.70
2022-10-11T18:17:59.269Z,1.52
2022-10-11T18:20:26.003Z,1.90
2022-10-11T18:22:52.478Z,1.60
2022-10-11T18:25:18.870Z,1.48
2022-10-11T18:27:45.369Z,1.80
2022-10-11T18:30:11.881Z,1.60
2022-10-11T18:32:38.304Z,1.48
2022-10-11T18:35:04.938Z,1.45
2022-10-11T18:37:31.395Z,1.48
2022-10-11T18:39:57.824Z,4.30
2022-10-11T18:42:24.512Z,4.65
2022-10-11T18:44:50.902Z,2.90
2022-10-11T18:47:17.331Z,2.25
2022-10-11T18:49:43.754Z,1.83
2022-10-11T18:52:10.259Z,1.73
2022-10-11T18:54:36.725Z,1.80
2022-10-11T18:57:03.177Z,1.38
2022-10-11T18:59:29.606Z,1.40
2022-10-11T19:01:56.017Z,1.90
2022-10-11T19:04:22.411Z,1.90
2022-10-11T19:06:49.731Z,1.63
2022-10-11T19:09:17.318Z,1.95
2022-10-11T19:11:43.760Z,2.40
2022-10-11T19:14:11.556Z,2.30
2022-10-11T19:16:39.413Z,2.90
2022-10-11T19:19:06.324Z,3.00
2022-10-11T19:21:32.773Z,2.72
2022-10-11T19:24:00.934Z,2.33
2022-10-11T19:26:35.326Z,2.25
2022-10-11T19:29:04.333Z,2.78
2022-10-11T19:31:31.050Z,2.15
2022-10-11T19:33:57.468Z,2.67
2022-10-11T19:36:23.919Z,1.88
2022-10-11T19:38:50.580Z,2.20
2022-10-11T19:41:19.293Z,2.00
2022-10-11T19:43:46.220Z,1.98
2022-10-11T19:46:20.149Z,2.03
2022-10-11T19:48:54.102Z,2.08
2022-10-11T19:51:24.462Z,1.98
2022-10-11T19:53:58.036Z,1.98
2022-10-11T19:56:25.528Z,2.42
2022-10-11T19:58:52.024Z,2.40
2022-10-11T20:01:20.384Z,1.77
2022-10-11T20:03:48.317Z,1.90
2022-10-11T20:06:15.053Z,1.90
2022-10-11T20:08:41.463Z,1.73
2022-10-11T20:11:08.516Z,1.90
2022-10-11T20:13:36.129Z,2.10
2022-10-11T20:16:04.933Z,1.92
2022-10-11T20:18:31.344Z,1.98
2022-10-11T20:21:00.355Z,1.90
2022-10-11T20:23:27.864Z,1.95
2022-10-11T20:26:11.587Z,2.03
2022-10-11T20:28:38.210Z,1.80
2022-10-11T20:31:10.368Z,1.98
2022-10-11T20:33:36.868Z,1.83
2022-10-11T20:36:08.059Z,1.48
2022-10-11T20:38:35.175Z,2.00
2022-10-11T20:41:08.453Z,1.98
2022-10-11T20:43:34.818Z,1.40
2022-10-11T20:46:08.488Z,1.83
2022-10-11T20:48:35.217Z,1.90
2022-10-11T20:51:01.631Z,1.40
2022-10-11T20:53:28.058Z,2.05
2022-10-11T20:55:54.788Z,1.58
2022-10-11T20:58:21.279Z,1.63
2022-10-11T21:00:48.191Z,1.88
2022-10-11T21:03:14.689Z,1.98
2022-10-11T21:05:41.222Z,1.58
2022-10-11T21:08:07.812Z,1.77
2022-10-11T21:10:34.429Z,1.50
2022-10-11T21:13:00.835Z,1.58
2022-10-11T21:15:29.358Z,1.98
2022-10-11T21:17:55.792Z,2.47
2022-10-11T21:20:22.849Z,3.22
2022-10-11T21:22:49.528Z,3.13
2022-10-11T21:25:16.070Z,2.92
2022-10-11T21:27:42.550Z,2.90
2022-10-11T21:30:09.416Z,3.22
2022-10-11T21:32:37.091Z,3.10
2022-10-11T21:35:04.299Z,3.05
2022-10-11T21:37:30.876Z,2.42
2022-10-11T21:39:57.373Z,3.05
2022-10-11T21:42:28.601Z,2.67
2022-10-11T21:44:55.955Z,3.13
2022-10-11T21:47:22.400Z,2.67
2022-10-11T21:49:48.816Z,2.70
2022-10-11T21:52:15.213Z,3.03
2022-10-11T21:54:41.588Z,3.08
2022-10-11T21:57:07.976Z,4.13
2022-10-11T21:59:34.341Z,2.55
2022-10-11T22:02:02.065Z,2.60
2022-10-11T22:04:28.672Z,2.83
2022-10-11T22:06:55.059Z,3.03
2022-10-11T22:09:21.417Z,2.45
2022-10-11T22:11:47.807Z,3.08
2022-10-11T22:14:14.205Z,2.90
2022-10-11T22:16:42.185Z,2.30
2022-10-11T22:19:08.615Z,2.67
2022-10-11T22:21:35.013Z,2.70
2022-10-11T22:24:01.412Z,2.00
2022-10-11T22:26:28.706Z,2.30
2022-10-11T22:28:55.135Z,3.17
2022-10-11T22:31:22.180Z,2.53
2022-10-11T22:33:48.855Z,2.38
2022-10-11T22:36:15.336Z,2.80
2022-10-11T22:38:42.312Z,2.53
2022-10-11T22:41:09.300Z,2.92
2022-10-11T22:43:35.788Z,2.08
2022-10-11T22:46:02.153Z,2.63
2022-10-11T22:48:28.554Z,2.55
2022-10-11T22:50:54.936Z,2.53
2022-10-11T22:53:21.344Z,2.60
2022-10-11T22:55:47.838Z,2.42
2022-10-11T22:58:14.230Z,2.75
2022-10-11T23:00:40.600Z,2.63
2022-10-11T23:03:07.047Z,2.25
2022-10-11T23:05:36.311Z,2.22
2022-10-11T23:08:02.692Z,2.58
2022-10-11T23:10:29.084Z,2.40
2022-10-11T23:12:55.460Z,2.50
2022-10-11T23:15:21.851Z,2.13
2022-10-11T23:17:48.237Z,2.38
2022-10-11T23:20:14.627Z,1.90
2022-10-11T23:22:40.987Z,2.22
2022-10-11T23:25:07.989Z,2.50
2022-10-11T23:27:34.517Z,2.60
2022-10-11T23:30:01.060Z,2.53
2022-10-11T23:32:27.422Z,2.28
2022-10-11T23:34:53.794Z,2.20
2022-10-11T23:37:20.440Z,2.17
2022-10-11T23:39:46.844Z,2.05
2022-10-11T23:42:13.235Z,2.45
2022-10-11T23:44:39.612Z,2.38
2022-10-11T23:47:06.001Z,2.25
2022-10-11T23:49:32.394Z,2.03
2022-10-11T23:51:58.806Z,2.08
2022-10-11T23:54:25.193Z,1.90
2022-10-11T23:56:51.624Z,1.98
2022-10-11T23:59:17.999Z,2.25
